Time;durP1;ratioP1;P1;durP2;ratioP2;P2;SDS_P1;SDS_P2;PMS_P1;PMS_P2;Temp;Humidity;BMP_temperature;BMP_pressure;BME280_temperature;BME280_humidity;BME280_pressure;Samples;Min_cycle;Max_cycle;Signal;HPM_P1;HPM_P2
2021/12/08 00:00:10;;;;;;;;;;;22.80;47.10;;;;;;5111597;28;19966;-58
2021/12/08 00:02:36;;;;;;;;;;;22.80;47.20;;;;;;5093435;28;19912;-58
2021/12/08 00:05:01;;;;;;;;;;;22.80;47.10;;;;;;5111789;28;19914;-58
2021/12/08 00:07:27;;;;;;;;;;;22.80;47.10;;;;;;5113657;28;19922;-58
2021/12/08 00:15:21;;;;;;;;;;;22.80;47.10;;;;;;5115574;28;19915;-59
2021/12/08 00:17:46;;;;;;;;;;;22.80;47.10;;;;;;5115372;28;19912;-58
2021/12/08 00:20:12;;;;;;;;;;;22.70;47.00;;;;;;5115186;28;19916;-58
2021/12/08 00:22:37;;;;;;;;;;;22.70;47.10;;;;;;5114782;28;19915;-58
2021/12/08 00:25:03;;;;;;;;;;;22.70;47.10;;;;;;5115242;28;19908;-58
2021/12/08 00:27:28;;;;;;;;;;;22.70;47.00;;;;;;5115180;28;19914;-58
2021/12/08 00:29:54;;;;;;;;;;;22.70;47.10;;;;;;5115147;28;19931;-58
2021/12/08 00:32:25;;;;;;;;;;;22.70;47.00;;;;;;5115083;28;19962;-58
2021/12/08 00:34:50;;;;;;;;;;;22.70;47.00;;;;;;5114924;28;19908;-58
2021/12/08 00:37:16;;;;;;;;;;;22.60;46.90;;;;;;5096115;28;19912;-58
2021/12/08 00:39:42;;;;;;;;;;;22.60;46.90;;;;;;5114901;28;19916;-58
2021/12/08 00:42:07;;;;;;;;;;;22.60;46.90;;;;;;5096519;28;19915;-58
2021/12/08 00:44:32;;;;;;;;;;;22.60;46.90;;;;;;5114849;28;19912;-58
2021/12/08 00:46:58;;;;;;;;;;;22.60;46.80;;;;;;5114702;28;19912;-58
2021/12/08 00:49:23;;;;;;;;;;;22.60;46.90;;;;;;5114764;28;20329;-58
2021/12/08 00:51:49;;;;;;;;;;;22.60;46.90;;;;;;5114167;28;19908;-58
2021/12/08 00:54:15;;;;;;;;;;;22.50;46.80;;;;;;5096386;28;19915;-58
2021/12/08 00:56:40;;;;;;;;;;;22.50;46.80;;;;;;5114587;28;20261;-58
2021/12/08 00:59:06;;;;;;;;;;;22.60;46.80;;;;;;5114358;28;20012;-58
2021/12/08 01:01:31;;;;;;;;;;;22.50;46.80;;;;;;5114519;28;20344;-58
2021/12/08 01:03:57;;;;;;;;;;;22.50;46.70;;;;;;5114327;28;19930;-58
2021/12/08 01:06:22;;;;;;;;;;;22.50;46.80;;;;;;5113959;28;20391;-58
2021/12/08 01:08:48;;;;;;;;;;;22.50;46.70;;;;;;5114303;28;19922;-58
2021/12/08 01:11:16;;;;;;;;;;;22.50;46.70;;;;;;5114258;28;19908;-58
2021/12/08 01:13:41;;;;;;;;;;;22.50;46.70;;;;;;5114256;28;19911;-58
2021/12/08 01:16:07;;;;;;;;;;;22.40;46.60;;;;;;5114149;28;19922;-58
2021/12/08 01:18:32;;;;;;;;;;;22.40;46.60;;;;;;5114022;28;19916;-58
2021/12/08 01:21:00;;;;;;;;;;;22.40;46.60;;;;;;5113451;28;19958;-58
2021/12/08 01:23:26;;;;;;;;;;;22.40;46.60;;;;;;5114204;28;19908;-58
2021/12/08 01:25:52;;;;;;;;;;;22.40;46.60;;;;;;5095655;28;19999;-58
2021/12/08 01:28:20;;;;;;;;;;;22.40;46.60;;;;;;5113925;28;19947;-58
2021/12/08 01:30:46;;;;;;;;;;;22.40;46.60;;;;;;5113890;28;19908;-58
2021/12/08 01:33:11;;;;;;;;;;;22.40;46.60;;;;;;5113754;28;20048;-58
2021/12/08 01:35:37;;;;;;;;;;;22.40;46.60;;;;;;5113326;28;19908;-58
2021/12/08 01:38:03;;;;;;;;;;;22.30;46.50;;;;;;5113935;28;20413;-58
2021/12/08 01:40:28;;;;;;;;;;;22.30;46.50;;;;;;5113590;28;19916;-58
2021/12/08 01:42:57;;;;;;;;;;;22.30;46.50;;;;;;5113639;28;20382;-58
2021/12/08 01:48:08;;;;;;;;;;;22.30;46.50;;;;;;5113900;28;19997;-58
2021/12/08 01:50:35;;;;;;;;;;;22.30;46.50;;;;;;5113004;28;20378;-58
2021/12/08 01:53:01;;;;;;;;;;;22.20;46.40;;;;;;5113434;28;20261;-58
2021/12/08 01:55:26;;;;;;;;;;;22.20;46.40;;;;;;5113358;28;19912;-58
2021/12/08 01:57:52;;;;;;;;;;;22.20;46.40;;;;;;5113378;28;20002;-58
2021/12/08 02:00:20;;;;;;;;;;;22.20;46.40;;;;;;5112908;28;19920;-58
2021/12/08 02:02:46;;;;;;;;;;;22.20;46.40;;;;;;5113234;28;19953;-58
2021/12/08 02:05:11;;;;;;;;;;;22.20;46.40;;;;;;5112704;28;20213;-58
2021/12/08 02:07:37;;;;;;;;;;;22.20;46.40;;;;;;5113114;28;19915;-58
2021/12/08 02:10:04;;;;;;;;;;;22.20;46.40;;;;;;5113165;28;19908;-58
2021/12/08 02:12:32;;;;;;;;;;;22.20;46.30;;;;;;5113055;28;19915;-58
2021/12/08 02:14:58;;;;;;;;;;;22.10;46.30;;;;;;5113077;28;19915;-58
2021/12/08 02:17:24;;;;;;;;;;;22.10;46.90;;;;;;5113027;28;19984;-58
2021/12/08 02:19:49;;;;;;;;;;;22.10;46.30;;;;;;5112389;28;20375;-58
2021/12/08 02:22:15;;;;;;;;;;;22.10;46.30;;;;;;5112903;28;19908;-58
2021/12/08 02:24:40;;;;;;;;;;;22.10;46.30;;;;;;5112882;28;20048;-58
2021/12/08 02:27:06;;;;;;;;;;;22.10;46.30;;;;;;5112830;28;19958;-58
2021/12/08 02:29:49;;;;;;;;;;;22.00;46.20;;;;;;5112370;28;20006;-58
2021/12/08 02:48:28;;;;;;;;;;;22.00;46.20;;;;;;5112184;28;19915;-58
2021/12/08 02:50:53;;;;;;;;;;;21.90;46.20;;;;;;5112638;28;19930;-58
2021/12/08 02:53:19;;;;;;;;;;;22.00;46.20;;;;;;5112407;28;20375;-58
2021/12/08 02:55:45;;;;;;;;;;;21.90;46.20;;;;;;5112577;28;19915;-58
2021/12/08 02:58:11;;;;;;;;;;;21.90;46.10;;;;;;5094129;28;20433;-57
2021/12/08 03:00:40;;;;;;;;;;;21.90;46.20;;;;;;5093897;28;20295;-58
2021/12/08 03:03:06;;;;;;;;;;;21.90;46.10;;;;;;5111815;28;19908;-58
2021/12/08 03:05:32;;;;;;;;;;;21.90;46.10;;;;;;5112331;28;20374;-58
2021/12/08 03:07:58;;;;;;;;;;;21.90;46.10;;;;;;5112276;28;19908;-58
2021/12/08 03:10:25;;;;;;;;;;;21.90;46.10;;;;;;5112213;28;19908;-58
2021/12/08 03:12:51;;;;;;;;;;;21.90;46.10;;;;;;5112098;28;19992;-58
2021/12/08 03:15:17;;;;;;;;;;;21.90;46.10;;;;;;5112353;28;19912;-58
2021/12/08 03:17:44;;;;;;;;;;;21.90;46.10;;;;;;5111620;28;19908;-58
2021/12/08 03:20:11;;;;;;;;;;;21.90;46.10;;;;;;5112022;28;19967;-58
2021/12/08 03:22:42;;;;;;;;;;;21.80;46.00;;;;;;5112182;28;19912;-58
2021/12/08 03:25:11;;;;;;;;;;;21.80;46.00;;;;;;5112197;28;19907;-58
2021/12/08 03:27:43;;;;;;;;;;;21.80;46.00;;;;;;5112011;28;19918;-57
2021/12/08 03:30:16;;;;;;;;;;;21.80;46.00;;;;;;5112295;28;19953;-58
2021/12/08 03:32:42;;;;;;;;;;;21.80;46.00;;;;;;5111662;28;19907;-57
2021/12/08 03:35:11;;;;;;;;;;;21.80;46.00;;;;;;5111981;28;19931;-58
2021/12/08 03:37:39;;;;;;;;;;;21.80;46.00;;;;;;5111945;28;19911;-58
2021/12/08 03:40:10;;;;;;;;;;;21.80;46.00;;;;;;5111876;28;20006;-57
2021/12/08 03:42:38;;;;;;;;;;;21.70;46.00;;;;;;5114298;28;19933;-58
2021/12/08 03:45:08;;;;;;;;;;;21.70;46.00;;;;;;5116134;28;19908;-58
2021/12/08 03:47:34;;;;;;;;;;;21.70;46.00;;;;;;5115484;28;19908;-58
2021/12/08 03:50:01;;;;;;;;;;;21.70;46.00;;;;;;5115809;28;19915;-58
2021/12/08 03:52:27;;;;;;;;;;;21.70;46.00;;;;;;5115725;28;19912;-58
2021/12/08 03:54:53;;;;;;;;;;;21.70;46.00;;;;;;5115701;28;19915;-57
2021/12/08 03:57:18;;;;;;;;;;;21.70;46.00;;;;;;5115731;28;20376;-57
2021/12/08 03:59:44;;;;;;;;;;;21.70;46.00;;;;;;5115516;28;19931;-58
2021/12/08 04:02:09;;;;;;;;;;;21.70;46.00;;;;;;5115108;28;19947;-58
2021/12/08 04:04:43;;;;;;;;;;;21.70;46.00;;;;;;5115506;28;19907;-57
2021/12/08 04:07:11;;;;;;;;;;;21.70;46.00;;;;;;5115439;28;19968;-57
2021/12/08 04:09:40;;;;;;;;;;;21.60;45.90;;;;;;5115439;28;20433;-58
2021/12/08 04:12:07;;;;;;;;;;;21.60;45.90;;;;;;5115461;28;19908;-58
2021/12/08 04:14:35;;;;;;;;;;;21.60;45.90;;;;;;5115579;28;19957;-58
2021/12/08 04:17:04;;;;;;;;;;;21.60;45.90;;;;;;5115401;28;19908;-58
2021/12/08 04:19:29;;;;;;;;;;;21.60;45.90;;;;;;5115130;28;19922;-58
2021/12/08 04:21:57;;;;;;;;;;;21.60;45.90;;;;;;5115015;28;20011;-58
2021/12/08 04:24:22;;;;;;;;;;;21.60;45.90;;;;;;5115145;28;19907;-58
2021/12/08 04:26:55;;;;;;;;;;;21.60;45.90;;;;;;5115240;28;20252;-57
2021/12/08 04:29:23;;;;;;;;;;;21.50;45.90;;;;;;5114683;28;19914;-58
2021/12/08 04:31:50;;;;;;;;;;;21.50;45.90;;;;;;5115033;28;19915;-58
2021/12/08 04:34:19;;;;;;;;;;;21.50;45.90;;;;;;5114963;28;20364;-58
2021/12/08 04:36:47;;;;;;;;;;;21.50;45.90;;;;;;5114918;28;19907;-58
2021/12/08 04:39:43;;;;;;;;;;;21.50;45.90;;;;;;5114737;28;19915;-58
2021/12/08 04:42:13;;;;;;;;;;;21.40;45.90;;;;;;5114813;28;19908;-58
2021/12/08 04:44:47;;;;;;;;;;;21.50;46.20;;;;;;5114178;28;20003;-58
2021/12/08 04:47:29;;;;;;;;;;;21.50;45.90;;;;;;5114814;28;19909;-58
2021/12/08 05:06:35;;;;;;;;;;;21.40;45.80;;;;;;5114608;28;19912;-58
2021/12/08 05:08:52;;;;;;;;;;;21.40;45.80;;;;;;5112656;28;19912;-58
2021/12/08 05:11:18;;;;;;;;;;;21.40;45.80;;;;;;5114194;28;19915;-58
2021/12/08 05:13:46;;;;;;;;;;;21.40;45.80;;;;;;5113711;28;19908;-58
2021/12/08 05:16:12;;;;;;;;;;;21.40;45.80;;;;;;5114182;28;19914;-58
2021/12/08 05:18:39;;;;;;;;;;;21.40;45.80;;;;;;5114187;28;19915;-58
2021/12/08 05:21:05;;;;;;;;;;;21.30;45.70;;;;;;5114122;28;19945;-58
2021/12/08 05:23:33;;;;;;;;;;;21.30;45.80;;;;;;5113996;28;19908;-58
2021/12/08 05:25:59;;;;;;;;;;;21.30;45.80;;;;;;5113989;28;19908;-56
2021/12/08 05:28:25;;;;;;;;;;;21.30;45.80;;;;;;5113349;28;19908;-58
2021/12/08 05:30:54;;;;;;;;;;;21.30;45.80;;;;;;5114013;28;19915;-58
2021/12/08 05:33:20;;;;;;;;;;;21.30;45.80;;;;;;5113785;28;20136;-58
2021/12/08 05:35:46;;;;;;;;;;;21.30;45.80;;;;;;5113675;28;19908;-57
2021/12/08 05:38:12;;;;;;;;;;;21.30;45.80;;;;;;5113734;28;20339;-58
2021/12/08 05:40:43;;;;;;;;;;;21.20;45.70;;;;;;5113527;28;19916;-58
2021/12/08 05:43:09;;;;;;;;;;;21.20;45.70;;;;;;5113016;28;19961;-57
2021/12/08 05:45:35;;;;;;;;;;;21.20;45.70;;;;;;5113485;28;19908;-57
2021/12/08 05:48:01;;;;;;;;;;;21.20;45.70;;;;;;5113617;28;20326;-58
2021/12/08 05:50:33;;;;;;;;;;;21.20;45.70;;;;;;5113496;28;20233;-58
2021/12/08 05:52:59;;;;;;;;;;;21.20;45.70;;;;;;5113285;28;19952;-58
2021/12/08 05:55:24;;;;;;;;;;;21.20;45.70;;;;;;5113385;28;20006;-58
2021/12/08 05:57:50;;;;;;;;;;;21.20;45.70;;;;;;5112817;28;20457;-58
2021/12/08 06:00:20;;;;;;;;;;;21.20;45.70;;;;;;5113052;28;19927;-57
2021/12/08 06:02:46;;;;;;;;;;;21.20;45.70;;;;;;5113293;28;19931;-57
2021/12/08 06:05:12;;;;;;;;;;;21.20;45.70;;;;;;5112551;28;20351;-58
2021/12/08 06:07:38;;;;;;;;;;;21.20;45.70;;;;;;5113172;28;19908;-58
2021/12/08 06:10:08;;;;;;;;;;;21.20;45.60;;;;;;5112904;28;20322;-57
2021/12/08 06:12:33;;;;;;;;;;;21.20;45.60;;;;;;5112523;28;19999;-58
2021/12/08 06:14:59;;;;;;;;;;;21.20;45.60;;;;;;5113187;28;19954;-58
2021/12/08 06:17:26;;;;;;;;;;;21.20;45.60;;;;;;5113014;28;20405;-57
2021/12/08 06:19:51;;;;;;;;;;;21.20;45.60;;;;;;5112840;28;19916;-58
2021/12/08 06:22:19;;;;;;;;;;;21.20;45.60;;;;;;5112845;28;19918;-57
2021/12/08 06:24:45;;;;;;;;;;;21.20;45.60;;;;;;5112837;28;19908;-58
2021/12/08 06:27:11;;;;;;;;;;;21.20;45.60;;;;;;5112313;28;19911;-57
2021/12/08 06:29:37;;;;;;;;;;;21.20;45.60;;;;;;5112753;28;20002;-58
2021/12/08 06:32:04;;;;;;;;;;;21.20;45.60;;;;;;5112742;28;19919;-57
2021/12/08 06:34:30;;;;;;;;;;;21.20;45.60;;;;;;5112727;28;19953;-56
2021/12/08 06:36:59;;;;;;;;;;;21.20;45.60;;;;;;5112681;28;19908;-57
2021/12/08 06:39:30;;;;;;;;;;;21.20;45.60;;;;;;5112551;28;19918;-58
2021/12/08 06:42:03;;;;;;;;;;;21.20;45.60;;;;;;5112197;28;19931;-57
2021/12/08 06:44:30;;;;;;;;;;;21.20;45.60;;;;;;5112653;28;19914;-58
2021/12/08 06:46:57;;;;;;;;;;;21.20;45.60;;;;;;5112567;28;19907;-58
2021/12/08 06:49:22;;;;;;;;;;;21.20;45.60;;;;;;5112416;28;20280;-58
2021/12/08 06:51:52;;;;;;;;;;;21.20;45.60;;;;;;5112410;28;19908;-57
2021/12/08 06:54:20;;;;;;;;;;;21.20;45.50;;;;;;5111968;28;19998;-57
2021/12/08 06:56:53;;;;;;;;;;;21.30;45.60;;;;;;5112375;28;20368;-57
2021/12/08 06:59:21;;;;;;;;;;;21.30;45.60;;;;;;5112165;28;19915;-57
2021/12/08 07:02:05;;;;;;;;;;;21.20;45.50;;;;;;5112364;28;19916;-58
2021/12/08 07:07:20;;;;;;;;;;;21.30;45.50;;;;;;5112453;28;19907;-58
2021/12/08 07:09:48;;;;;;;;;;;21.30;45.50;;;;;;5111835;28;19916;-46
2021/12/08 07:12:16;;;;;;;;;;;21.30;45.50;;;;;;5112249;28;20347;-62
2021/12/08 07:14:43;;;;;;;;;;;21.30;45.50;;;;;;5112285;28;19908;-60
2021/12/08 07:17:14;;;;;;;;;;;21.30;45.50;;;;;;5115673;28;19932;-58
2021/12/08 07:19:52;;;;;;;;;;;21.30;45.60;;;;;;5116571;28;19938;-56
2021/12/08 07:22:24;;;;;;;;;;;21.30;45.50;;;;;;5116448;28;19912;-51
2021/12/08 07:24:52;;;;;;;;;;;21.30;45.50;;;;;;5115815;28;20171;-53
2021/12/08 07:27:20;;;;;;;;;;;21.30;45.50;;;;;;5116251;28;19916;-62
2021/12/08 07:29:47;;;;;;;;;;;21.30;45.50;;;;;;5116423;28;19935;-58
2021/12/08 07:32:19;;;;;;;;;;;21.30;45.50;;;;;;5116194;28;20275;-58
2021/12/08 07:34:44;;;;;;;;;;;21.30;45.50;;;;;;5116154;28;19907;-58
2021/12/08 07:37:13;;;;;;;;;;;21.40;45.60;;;;;;5116159;28;19914;-58
2021/12/08 07:39:44;;;;;;;;;;;21.40;45.60;;;;;;5115460;28;19922;-58
2021/12/08 07:42:16;;;;;;;;;;;21.40;45.60;;;;;;5097713;28;20347;-58
2021/12/08 07:44:43;;;;;;;;;;;21.40;45.60;;;;;;5116336;28;19908;-58
2021/12/08 07:47:09;;;;;;;;;;;21.40;45.60;;;;;;5115963;28;19908;-58
2021/12/08 07:49:40;;;;;;;;;;;21.40;45.70;;;;;;5115842;28;19966;-58
2021/12/08 07:52:10;;;;;;;;;;;21.40;45.70;;;;;;5115378;28;19908;-58
2021/12/08 07:54:36;;;;;;;;;;;21.50;45.70;;;;;;5099700;28;19912;-59
2021/12/08 07:57:06;;;;;;;;;;;21.40;45.70;;;;;;5109934;28;20489;-59
2021/12/08 07:59:33;;;;;;;;;;;21.50;45.80;;;;;;5108183;28;20383;-58
2021/12/08 08:02:00;;;;;;;;;;;21.50;45.80;;;;;;5114780;28;20254;-57
2021/12/08 08:04:26;;;;;;;;;;;21.50;45.90;;;;;;5115379;28;20347;-58
2021/12/08 08:06:53;;;;;;;;;;;21.50;45.90;;;;;;5114902;28;19953;-57
2021/12/08 08:09:22;;;;;;;;;;;21.60;45.90;;;;;;5115404;28;19914;-58
2021/12/08 08:11:54;;;;;;;;;;;21.60;46.00;;;;;;5115329;28;19962;-58
2021/12/08 08:14:20;;;;;;;;;;;21.60;46.00;;;;;;5111671;28;20420;-54
2021/12/08 08:16:50;;;;;;;;;;;21.60;46.00;;;;;;5094908;28;19991;-58
2021/12/08 08:19:18;;;;;;;;;;;21.60;46.00;;;;;;5094686;28;19981;-60
2021/12/08 08:21:48;;;;;;;;;;;21.60;46.10;;;;;;5094278;28;19908;-59
2021/12/08 08:24:14;;;;;;;;;;;21.70;46.20;;;;;;5094666;28;20002;-59
2021/12/08 08:26:41;;;;;;;;;;;21.70;46.20;;;;;;5094590;28;19954;-60
2021/12/08 08:29:06;;;;;;;;;;;21.70;46.20;;;;;;5093798;28;19908;-60
2021/12/08 08:31:35;;;;;;;;;;;21.80;46.30;;;;;;5094677;28;19953;-59
2021/12/08 08:34:00;;;;;;;;;;;21.80;46.30;;;;;;5094355;28;19908;-59
2021/12/08 08:36:28;;;;;;;;;;;21.80;46.40;;;;;;5093994;28;19908;-59
2021/12/08 08:39:01;;;;;;;;;;;21.80;46.30;;;;;;5094373;28;19909;-59
2021/12/08 08:41:32;;;;;;;;;;;21.90;46.40;;;;;;5094341;28;19916;-59
2021/12/08 08:43:59;;;;;;;;;;;21.90;46.40;;;;;;5094414;28;20249;-59
2021/12/08 08:46:30;;;;;;;;;;;21.90;46.40;;;;;;5094205;28;19915;-59
2021/12/08 08:48:57;;;;;;;;;;;21.90;46.40;;;;;;5094460;28;19938;-59
2021/12/08 08:51:35;;;;;;;;;;;21.90;46.40;;;;;;5093520;28;19908;-59
2021/12/08 08:54:03;;;;;;;;;;;21.90;46.40;;;;;;5094112;28;19908;-59
2021/12/08 08:56:31;;;;;;;;;;;21.90;46.30;;;;;;5094036;28;19995;-59
2021/12/08 08:59:03;;;;;;;;;;;21.90;46.30;;;;;;5093896;28;19922;-58
2021/12/08 09:01:34;;;;;;;;;;;21.90;46.30;;;;;;5093947;28;19924;-58
2021/12/08 09:04:02;;;;;;;;;;;21.90;46.30;;;;;;5093822;28;19911;-59
2021/12/08 09:06:30;;;;;;;;;;;21.90;46.30;;;;;;5093451;28;19916;-58
2021/12/08 09:08:56;;;;;;;;;;;21.90;46.30;;;;;;5093729;28;19998;-59
2021/12/08 09:11:26;;;;;;;;;;;21.90;46.30;;;;;;5093756;28;20010;-58
2021/12/08 09:13:54;;;;;;;;;;;21.90;46.20;;;;;;5094240;28;19908;-58
2021/12/08 09:16:24;;;;;;;;;;;21.90;46.20;;;;;;5093802;28;19908;-58
2021/12/08 09:19:02;;;;;;;;;;;21.90;46.20;;;;;;5093704;28;19959;-59
2021/12/08 09:21:31;;;;;;;;;;;21.90;46.20;;;;;;5080501;28;19919;-58
2021/12/08 09:24:04;;;;;;;;;;;21.90;46.20;;;;;;5113814;28;19947;-59
2021/12/08 09:26:34;;;;;;;;;;;21.90;46.20;;;;;;5113861;28;19907;-59
2021/12/08 09:29:03;;;;;;;;;;;21.90;46.20;;;;;;5113764;28;19908;-59
2021/12/08 09:31:32;;;;;;;;;;;22.00;46.20;;;;;;5113785;28;19912;-60
2021/12/08 09:34:03;;;;;;;;;;;21.90;46.20;;;;;;5113294;28;20037;-60
2021/12/08 09:36:34;;;;;;;;;;;22.00;46.20;;;;;;5113733;28;19992;-59
2021/12/08 09:39:09;;;;;;;;;;;22.00;46.10;;;;;;5112689;28;19931;-60
2021/12/08 09:41:41;;;;;;;;;;;22.00;46.70;;;;;;5095326;28;19923;-59
2021/12/08 09:44:09;;;;;;;;;;;22.00;46.10;;;;;;5113646;28;19943;-60
2021/12/08 09:46:40;;;;;;;;;;;21.90;46.00;;;;;;5108197;28;19908;-60
2021/12/08 09:49:06;;;;;;;;;;;22.00;46.10;;;;;;5092344;28;19916;-60
2021/12/08 09:51:32;;;;;;;;;;;22.00;46.10;;;;;;5093020;28;19908;-60
2021/12/08 09:53:58;;;;;;;;;;;22.00;46.00;;;;;;5074827;28;19912;-60
2021/12/08 09:56:24;;;;;;;;;;;21.90;46.00;;;;;;5092855;28;19908;-60
2021/12/08 09:58:50;;;;;;;;;;;22.00;46.00;;;;;;5092729;28;20322;-60
2021/12/08 10:01:19;;;;;;;;;;;22.00;46.00;;;;;;5092699;28;19920;-60
2021/12/08 10:03:45;;;;;;;;;;;22.00;46.00;;;;;;5074128;28;20283;-60
2021/12/08 10:06:12;;;;;;;;;;;22.00;46.00;;;;;;5092860;28;19908;-60
2021/12/08 10:08:38;;;;;;;;;;;22.00;46.00;;;;;;5092695;28;19919;-60
2021/12/08 10:11:03;;;;;;;;;;;22.00;46.00;;;;;;5092454;28;19912;-60
2021/12/08 10:13:29;;;;;;;;;;;22.00;46.00;;;;;;5092658;28;19908;-60
2021/12/08 10:15:54;;;;;;;;;;;22.00;45.90;;;;;;5092507;28;20397;-59
2021/12/08 10:18:20;;;;;;;;;;;22.00;45.90;;;;;;5092154;28;19908;-60
2021/12/08 10:20:47;;;;;;;;;;;22.00;45.90;;;;;;5092341;28;19916;-60
2021/12/08 10:23:15;;;;;;;;;;;22.00;45.90;;;;;;5090921;28;19915;-60
2021/12/08 10:25:43;;;;;;;;;;;22.00;45.90;;;;;;5092410;28;19908;-60
2021/12/08 10:28:10;;;;;;;;;;;22.00;45.90;;;;;;5092322;28;19908;-60
2021/12/08 10:30:41;;;;;;;;;;;22.00;45.90;;;;;;5092159;28;19961;-60
2021/12/08 10:33:12;;;;;;;;;;;22.00;45.80;;;;;;5091874;28;19977;-60
2021/12/08 10:35:42;;;;;;;;;;;22.00;45.80;;;;;;5092282;28;20011;-60
2021/12/08 10:38:08;;;;;;;;;;;22.00;45.80;;;;;;5092219;28;19908;-60
2021/12/08 10:40:34;;;;;;;;;;;22.00;45.80;;;;;;5073940;28;19917;-60
2021/12/08 10:43:11;;;;;;;;;;;22.00;45.80;;;;;;5091945;28;19995;-60
2021/12/08 10:45:36;;;;;;;;;;;22.00;45.80;;;;;;5091867;28;19908;-60
2021/12/08 10:48:02;;;;;;;;;;;22.00;45.80;;;;;;5091659;28;20391;-60
2021/12/08 10:56:00;;;;;;;;;;;22.10;45.80;;;;;;5091932;28;20372;-60
2021/12/08 10:58:26;;;;;;;;;;;22.10;45.80;;;;;;5091769;28;20372;-60
2021/12/08 11:00:53;;;;;;;;;;;22.10;45.80;;;;;;5072996;28;19931;-59
2021/12/08 11:03:20;;;;;;;;;;;22.10;45.70;;;;;;5073224;28;21292;-60
2021/12/08 11:05:48;;;;;;;;;;;22.10;45.70;;;;;;5091917;28;20314;-60
2021/12/08 11:08:32;;;;;;;;;;;22.10;45.70;;;;;;5091691;28;20328;-60
2021/12/08 11:11:05;;;;;;;;;;;22.10;45.60;;;;;;5091605;28;20288;-60
2021/12/08 11:13:32;;;;;;;;;;;22.10;45.60;;;;;;5091727;28;19908;-59
2021/12/08 11:16:07;;;;;;;;;;;22.10;45.60;;;;;;5091123;28;20364;-60
2021/12/08 11:18:38;;;;;;;;;;;22.10;45.60;;;;;;5091594;28;20361;-60
2021/12/08 11:21:05;;;;;;;;;;;22.10;45.60;;;;;;5091576;28;20297;-60
2021/12/08 11:23:43;;;;;;;;;;;22.10;46.20;;;;;;5091629;28;20410;-60
2021/12/08 11:26:10;;;;;;;;;;;22.10;45.50;;;;;;5091690;28;19910;-60
2021/12/08 11:28:35;;;;;;;;;;;22.00;45.50;;;;;;5091612;28;19908;-61
2021/12/08 11:31:03;;;;;;;;;;;22.00;45.40;;;;;;5091002;28;19909;-60
2021/12/08 11:33:29;;;;;;;;;;;22.00;45.40;;;;;;5091717;28;20324;-60
2021/12/08 11:36:12;;;;;;;;;;;22.00;45.40;;;;;;5091624;28;20360;-61
2021/12/08 11:38:38;;;;;;;;;;;22.00;45.50;;;;;;5091586;28;19912;-60
2021/12/08 11:41:34;;;;;;;;;;;22.00;45.50;;;;;;5091354;28;19959;-61
2021/12/08 11:44:01;;;;;;;;;;;22.00;45.50;;;;;;5046027;28;20372;-60
2021/12/08 11:46:26;;;;;;;;;;;22.00;45.50;;;;;;5091193;28;19908;-61
2021/12/08 11:49:03;;;;;;;;;;;22.00;45.50;;;;;;5091409;28;19915;-61
2021/12/08 11:51:31;;;;;;;;;;;22.00;45.50;;;;;;5091587;28;19909;-60
2021/12/08 11:53:57;;;;;;;;;;;22.00;45.50;;;;;;5091295;28;20211;-59
2021/12/08 11:56:33;;;;;;;;;;;22.00;45.50;;;;;;5091334;28;19999;-60
2021/12/08 11:58:59;;;;;;;;;;;22.00;45.50;;;;;;5090711;28;19908;-60
2021/12/08 12:01:24;;;;;;;;;;;22.00;45.50;;;;;;5090684;28;19973;-60
2021/12/08 12:03:50;;;;;;;;;;;22.00;45.50;;;;;;5094000;28;19915;-61
2021/12/08 12:06:15;;;;;;;;;;;22.00;45.90;;;;;;5095084;28;20394;-60
2021/12/08 12:08:41;;;;;;;;;;;22.00;45.50;;;;;;5094939;28;19916;-60
2021/12/08 12:11:06;;;;;;;;;;;22.10;45.60;;;;;;5094862;28;19981;-61
2021/12/08 12:13:32;;;;;;;;;;;22.10;45.60;;;;;;5094408;28;20002;-60
2021/12/08 12:15:57;;;;;;;;;;;22.00;45.50;;;;;;5094934;28;19908;-60
2021/12/08 12:18:30;;;;;;;;;;;22.00;45.50;;;;;;5094826;28;19908;-60
2021/12/08 12:20:57;;;;;;;;;;;22.00;45.50;;;;;;5076479;28;19920;-60
2021/12/08 12:23:58;;;;;;;;;;;22.00;45.50;;;;;;5094886;28;19951;-61
2021/12/08 12:26:31;;;;;;;;;;;22.00;45.50;;;;;;4992887;28;20050;-63
2021/12/08 12:29:15;;;;;;;;;;;22.10;45.60;;;;;;4976038;28;19957;-59
2021/12/08 12:31:56;;;;;;;;;;;22.00;45.50;;;;;;4992766;28;20009;-61
2021/12/08 12:34:21;;;;;;;;;;;22.00;45.50;;;;;;4992733;28;19917;-61
2021/12/08 12:36:47;;;;;;;;;;;22.00;45.50;;;;;;4992687;28;19914;-61
2021/12/08 12:39:17;;;;;;;;;;;22.00;45.50;;;;;;4992662;28;19921;-61
2021/12/08 12:41:43;;;;;;;;;;;22.00;45.60;;;;;;4992569;28;19925;-62
2021/12/08 12:44:13;;;;;;;;;;;22.00;45.60;;;;;;4992071;28;19914;-61
2021/12/08 12:46:59;;;;;;;;;;;22.00;45.70;;;;;;4992492;28;19910;-61
2021/12/08 12:49:24;;;;;;;;;;;22.00;45.70;;;;;;4992533;28;19910;-61
2021/12/08 12:51:57;;;;;;;;;;;22.00;45.70;;;;;;5006274;28;19916;-61
2021/12/08 12:54:23;;;;;;;;;;;22.00;45.70;;;;;;5005561;28;19965;-62
2021/12/08 12:56:50;;;;;;;;;;;22.10;45.80;;;;;;4991866;28;20283;-61
2021/12/08 12:59:20;;;;;;;;;;;22.10;45.80;;;;;;4995289;28;20290;-62
2021/12/08 13:01:47;;;;;;;;;;;22.10;45.80;;;;;;5072527;28;19974;-62
2021/12/08 13:04:19;;;;;;;;;;;22.10;45.80;;;;;;5072564;28;19909;-61
2021/12/08 13:06:48;;;;;;;;;;;22.10;45.80;;;;;;5073597;28;19915;-61
2021/12/08 13:09:34;;;;;;;;;;;22.10;45.80;;;;;;5072339;28;20285;-61
2021/12/08 13:12:18;;;;;;;;;;;22.10;45.80;;;;;;5073122;28;19916;-61
2021/12/08 13:14:45;;;;;;;;;;;22.10;45.70;;;;;;5073266;28;19909;-61
2021/12/08 13:17:10;;;;;;;;;;;22.10;45.70;;;;;;5073486;28;19931;-61
2021/12/08 13:20:02;;;;;;;;;;;22.10;45.80;;;;;;5073239;28;20277;-61
2021/12/08 13:22:45;;;;;;;;;;;22.10;45.80;;;;;;5071962;28;19947;-61
2021/12/08 13:25:38;;;;;;;;;;;22.10;45.80;;;;;;5073359;28;19915;-61
2021/12/08 13:28:11;;;;;;;;;;;22.10;45.80;;;;;;5073261;28;19995;-61
2021/12/08 13:30:48;;;;;;;;;;;22.10;45.80;;;;;;5071985;28;20239;-61
2021/12/08 13:33:22;;;;;;;;;;;22.10;45.80;;;;;;5073345;28;19909;-62
2021/12/08 13:35:48;;;;;;;;;;;22.10;45.80;;;;;;5073103;28;19962;-61
2021/12/08 13:38:14;;;;;;;;;;;22.10;45.80;;;;;;5072970;28;19908;-61
2021/12/08 13:40:41;;;;;;;;;;;22.10;45.80;;;;;;5072367;28;19927;-61
2021/12/08 13:43:07;;;;;;;;;;;22.10;45.80;;;;;;5072908;28;19909;-62
2021/12/08 13:45:42;;;;;;;;;;;22.10;45.80;;;;;;5072850;28;20115;-61
2021/12/08 13:48:08;;;;;;;;;;;22.10;45.80;;;;;;5072856;28;19913;-62
2021/12/08 13:50:34;;;;;;;;;;;22.20;45.80;;;;;;5072758;28;19909;-61
2021/12/08 13:53:09;;;;;;;;;;;22.10;45.80;;;;;;5072724;28;19915;-62
2021/12/08 13:55:36;;;;;;;;;;;22.20;45.80;;;;;;5072236;28;19909;-61
2021/12/08 13:58:05;;;;;;;;;;;22.20;45.80;;;;;;5071387;28;19908;-62
2021/12/08 14:00:33;;;;;;;;;;;22.20;45.80;;;;;;5084457;28;19920;-61
2021/12/08 14:03:02;;;;;;;;;;;22.20;45.80;;;;;;5092749;28;19908;-61
2021/12/08 14:05:29;;;;;;;;;;;22.20;45.80;;;;;;5092720;28;19915;-61
2021/12/08 14:07:57;;;;;;;;;;;22.20;45.80;;;;;;5092886;28;19908;-61
2021/12/08 14:10:30;;;;;;;;;;;22.20;45.90;;;;;;5092344;28;19908;-61
2021/12/08 14:13:00;;;;;;;;;;;22.20;45.80;;;;;;5106310;28;19930;-61
2021/12/08 14:15:33;;;;;;;;;;;22.20;45.90;;;;;;5113488;28;20003;-62
2021/12/08 14:18:11;;;;;;;;;;;22.20;45.80;;;;;;5109286;28;20006;-63
2021/12/08 14:20:36;;;;;;;;;;;22.20;45.90;;;;;;5112016;28;19965;-64
2021/12/08 14:23:02;;;;;;;;;;;22.20;45.90;;;;;;5112881;28;20325;-62
2021/12/08 14:25:31;;;;;;;;;;;22.20;45.80;;;;;;5111729;28;20386;-62
2021/12/08 14:27:56;;;;;;;;;;;22.20;45.80;;;;;;5112732;28;19917;-62
2021/12/08 14:30:21;;;;;;;;;;;22.20;45.80;;;;;;5112533;28;19908;-63
2021/12/08 14:32:58;;;;;;;;;;;22.20;45.80;;;;;;5112647;28;19918;-63
2021/12/08 14:35:24;;;;;;;;;;;22.20;45.80;;;;;;5112789;28;19908;-63
2021/12/08 14:37:58;;;;;;;;;;;22.20;45.80;;;;;;5112568;28;19908;-62
2021/12/08 14:40:23;;;;;;;;;;;22.30;45.90;;;;;;5105729;28;19924;-62
2021/12/08 14:42:49;;;;;;;;;;;22.30;45.90;;;;;;5095456;28;19914;-62
2021/12/08 14:45:14;;;;;;;;;;;22.30;45.90;;;;;;5089635;28;19908;-62
2021/12/08 14:47:47;;;;;;;;;;;22.30;45.90;;;;;;5112632;28;19994;-63
2021/12/08 14:50:20;;;;;;;;;;;22.30;45.90;;;;;;5112499;28;20269;-62
2021/12/08 14:52:46;;;;;;;;;;;22.30;45.90;;;;;;5112037;28;19914;-62
2021/12/08 14:55:14;;;;;;;;;;;22.30;45.90;;;;;;5093946;28;20003;-62
2021/12/08 14:57:40;;;;;;;;;;;22.30;45.90;;;;;;5112481;28;19915;-63
2021/12/08 15:00:06;;;;;;;;;;;22.30;45.90;;;;;;5112121;28;19969;-62
2021/12/08 15:02:33;;;;;;;;;;;22.30;45.90;;;;;;5112398;28;19908;-62
2021/12/08 15:05:00;;;;;;;;;;;22.30;45.90;;;;;;5112291;28;19908;-62
2021/12/08 15:07:27;;;;;;;;;;;22.30;45.80;;;;;;5111786;28;19915;-62
2021/12/08 15:10:00;;;;;;;;;;;22.30;45.80;;;;;;5112223;28;19907;-62
2021/12/08 15:12:26;;;;;;;;;;;22.30;45.80;;;;;;5112271;28;19908;-62